sensor_id;sensor_type;location;lat;lon;timestamp;temperature;humidity
17333;DHT22;8784;50.94667800;7.08448400;2024-03-07T00:00:36;7.20;99.90
17333;DHT22;8784;50.94667800;7.08448400;2024-03-07T00:03:06;7.20;99.90
17333;DHT22;8784;50.94667800;7.08448400;2024-03-07T00:05:33;7.10;99.90
17333;DHT22;8784;50.94667800;7.08448400;2024-03-07T00:08:00;7.00;99.90
17333;DHT22;8784;50.94667800;7.08448400;2024-03-07T00:10:27;7.00;99.90
17333;DHT22;8784;50.94667800;7.08448400;2024-03-07T00:12:54;6.90;99.90
17333;DHT22;8784;50.94667800;7.08448400;2024-03-07T00:15:20;6.90;99.90
17333;DHT22;8784;50.94667800;7.08448400;2024-03-07T00:17:49;6.90;99.90
17333;DHT22;8784;50.94667800;7.08448400;2024-03-07T00:20:16;6.80;99.90
17333;DHT22;8784;50.94667800;7.08448400;2024-03-07T00:22:44;6.70;99.90
17333;DHT22;8784;50.94667800;7.08448400;2024-03-07T00:25:11;6.60;99.90
17333;DHT22;8784;50.94667800;7.08448400;2024-03-07T00:27:40;6.60;99.90
17333;DHT22;8784;50.94667800;7.08448400;2024-03-07T00:30:08;6.50;99.90
17333;DHT22;8784;50.94667800;7.08448400;2024-03-07T00:32:35;6.50;99.90
17333;DHT22;8784;50.94667800;7.08448400;2024-03-07T00:35:07;6.40;99.90
17333;DHT22;8784;50.94667800;7.08448400;2024-03-07T00:37:34;6.40;99.90
17333;DHT22;8784;50.94667800;7.08448400;2024-03-07T00:40:01;6.40;99.90
17333;DHT22;8784;50.94667800;7.08448400;2024-03-07T00:42:29;6.40;99.90
17333;DHT22;8784;50.94667800;7.08448400;2024-03-07T00:44:56;6.50;99.90
17333;DHT22;8784;50.94667800;7.08448400;2024-03-07T00:47:23;6.40;99.90
17333;DHT22;8784;50.94667800;7.08448400;2024-03-07T00:49:50;6.40;99.90
17333;DHT22;8784;50.94667800;7.08448400;2024-03-07T00:52:19;6.40;99.90
17333;DHT22;8784;50.94667800;7.08448400;2024-03-07T00:54:46;6.40;99.90
17333;DHT22;8784;50.94667800;7.08448400;2024-03-07T00:57:13;6.40;99.90
17333;DHT22;8784;50.94667800;7.08448400;2024-03-07T00:59:40;6.40;99.90
17333;DHT22;8784;50.94667800;7.08448400;2024-03-07T01:02:07;6.40;99.90
17333;DHT22;8784;50.94667800;7.08448400;2024-03-07T01:04:34;6.50;99.90
17333;DHT22;8784;50.94667800;7.08448400;2024-03-07T01:07:01;6.40;99.90
17333;DHT22;8784;50.94667800;7.08448400;2024-03-07T01:09:30;6.30;99.90
17333;DHT22;8784;50.94667800;7.08448400;2024-03-07T01:11:57;6.20;99.90
17333;DHT22;8784;50.94667800;7.08448400;2024-03-07T01:14:25;6.20;99.90
17333;DHT22;8784;50.94667800;7.08448400;2024-03-07T01:16:52;6.10;99.90
17333;DHT22;8784;50.94667800;7.08448400;2024-03-07T01:19:19;6.00;99.90
17333;DHT22;8784;50.94667800;7.08448400;2024-03-07T01:21:46;6.00;99.90
17333;DHT22;8784;50.94667800;7.08448400;2024-03-07T01:24:13;6.00;99.90
17333;DHT22;8784;50.94667800;7.08448400;2024-03-07T01:26:44;6.00;99.90
17333;DHT22;8784;50.94667800;7.08448400;2024-03-07T01:29:11;6.00;99.90
17333;DHT22;8784;50.94667800;7.08448400;2024-03-07T01:31:39;6.00;99.90
17333;DHT22;8784;50.94667800;7.08448400;2024-03-07T01:34:06;5.90;99.90
17333;DHT22;8784;50.94667800;7.08448400;2024-03-07T01:36:33;5.80;99.90
17333;DHT22;8784;50.94667800;7.08448400;2024-03-07T01:39:00;5.80;99.90
17333;DHT22;8784;50.94667800;7.08448400;2024-03-07T01:41:27;5.70;99.90
17333;DHT22;8784;50.94667800;7.08448400;2024-03-07T01:43:55;5.70;99.90
17333;DHT22;8784;50.94667800;7.08448400;2024-03-07T01:46:22;5.50;99.90
17333;DHT22;8784;50.94667800;7.08448400;2024-03-07T01:48:50;5.50;99.90
17333;DHT22;8784;50.94667800;7.08448400;2024-03-07T01:51:17;5.40;99.90
17333;DHT22;8784;50.94667800;7.08448400;2024-03-07T01:53:44;5.40;99.90
17333;DHT22;8784;50.94667800;7.08448400;2024-03-07T01:56:11;5.40;99.90
17333;DHT22;8784;50.94667800;7.08448400;2024-03-07T01:58:42;5.40;99.90
17333;DHT22;8784;50.94667800;7.08448400;2024-03-07T02:01:10;5.60;99.90
17333;DHT22;8784;50.94667800;7.08448400;2024-03-07T02:03:40;5.50;99.90
17333;DHT22;8784;50.94667800;7.08448400;2024-03-07T02:06:07;5.50;99.90
17333;DHT22;8784;50.94667800;7.08448400;2024-03-07T02:08:34;5.50;99.90
17333;DHT22;8784;50.94667800;7.08448400;2024-03-07T02:11:01;5.50;99.90
17333;DHT22;8784;50.94667800;7.08448400;2024-03-07T02:13:28;5.50;99.90
17333;DHT22;8784;50.94667800;7.08448400;2024-03-07T02:15:57;5.50;99.90
17333;DHT22;8784;50.94667800;7.08448400;2024-03-07T02:18:25;5.50;99.90
17333;DHT22;8784;50.94667800;7.08448400;2024-03-07T02:20:54;5.50;99.90
17333;DHT22;8784;50.94667800;7.08448400;2024-03-07T02:23:23;5.50;99.90
17333;DHT22;8784;50.94667800;7.08448400;2024-03-07T02:25:51;5.50;99.90
17333;DHT22;8784;50.94667800;7.08448400;2024-03-07T02:28:18;5.50;99.90
17333;DHT22;8784;50.94667800;7.08448400;2024-03-07T02:30:44;5.50;99.90
17333;DHT22;8784;50.94667800;7.08448400;2024-03-07T02:33:13;5.50;99.90
17333;DHT22;8784;50.94667800;7.08448400;2024-03-07T02:35:40;5.50;99.90
17333;DHT22;8784;50.94667800;7.08448400;2024-03-07T02:38:08;5.40;99.90
17333;DHT22;8784;50.94667800;7.08448400;2024-03-07T02:40:35;5.40;99.90
17333;DHT22;8784;50.94667800;7.08448400;2024-03-07T02:43:02;5.40;99.90
17333;DHT22;8784;50.94667800;7.08448400;2024-03-07T02:45:30;5.30;99.90
17333;DHT22;8784;50.94667800;7.08448400;2024-03-07T02:47:57;5.30;99.90
17333;DHT22;8784;50.94667800;7.08448400;2024-03-07T02:50:24;5.30;99.90
17333;DHT22;8784;50.94667800;7.08448400;2024-03-07T02:52:51;5.40;99.90
17333;DHT22;8784;50.94667800;7.08448400;2024-03-07T02:55:19;5.40;99.90
17333;DHT22;8784;50.94667800;7.08448400;2024-03-07T02:57:46;5.40;99.90
17333;DHT22;8784;50.94667800;7.08448400;2024-03-07T03:00:14;5.50;99.90
17333;DHT22;8784;50.94667800;7.08448400;2024-03-07T03:02:55;5.50;99.90
17333;DHT22;8784;50.94667800;7.08448400;2024-03-07T03:05:22;5.60;99.90
17333;DHT22;8784;50.94667800;7.08448400;2024-03-07T03:07:50;5.60;99.90
17333;DHT22;8784;50.94667800;7.08448400;2024-03-07T03:10:21;5.60;99.90
17333;DHT22;8784;50.94667800;7.08448400;2024-03-07T03:12:52;5.60;99.90
17333;DHT22;8784;50.94667800;7.08448400;2024-03-07T03:15:20;5.60;99.90
17333;DHT22;8784;50.94667800;7.08448400;2024-03-07T03:17:47;5.50;99.90
17333;DHT22;8784;50.94667800;7.08448400;2024-03-07T03:20:14;5.50;99.90
17333;DHT22;8784;50.94667800;7.08448400;2024-03-07T03:22:51;5.40;99.90
17333;DHT22;8784;50.94667800;7.08448400;2024-03-07T03:25:18;5.50;99.90
17333;DHT22;8784;50.94667800;7.08448400;2024-03-07T03:27:48;5.50;99.90
17333;DHT22;8784;50.94667800;7.08448400;2024-03-07T03:30:16;5.50;99.90
17333;DHT22;8784;50.94667800;7.08448400;2024-03-07T03:32:45;5.50;99.90
17333;DHT22;8784;50.94667800;7.08448400;2024-03-07T03:35:13;5.50;99.90
17333;DHT22;8784;50.94667800;7.08448400;2024-03-07T03:37:41;5.40;99.90
17333;DHT22;8784;50.94667800;7.08448400;2024-03-07T03:40:10;5.40;99.90
17333;DHT22;8784;50.94667800;7.08448400;2024-03-07T03:42:38;5.40;99.90
17333;DHT22;8784;50.94667800;7.08448400;2024-03-07T03:45:08;5.50;99.90
17333;DHT22;8784;50.94667800;7.08448400;2024-03-07T03:47:35;5.50;99.90
17333;DHT22;8784;50.94667800;7.08448400;2024-03-07T03:50:04;5.50;99.90
17333;DHT22;8784;50.94667800;7.08448400;2024-03-07T03:52:31;5.50;99.90
17333;DHT22;8784;50.94667800;7.08448400;2024-03-07T03:54:59;5.50;99.90
17333;DHT22;8784;50.94667800;7.08448400;2024-03-07T03:57:27;5.60;99.90
17333;DHT22;8784;50.94667800;7.08448400;2024-03-07T03:59:54;5.60;99.90
17333;DHT22;8784;50.94667800;7.08448400;2024-03-07T04:02:23;5.70;99.90
17333;DHT22;8784;50.94667800;7.08448400;2024-03-07T04:04:52;5.70;99.90
17333;DHT22;8784;50.94667800;7.08448400;2024-03-07T04:07:19;5.70;99.90
17333;DHT22;8784;50.94667800;7.08448400;2024-03-07T04:09:47;5.70;99.90
17333;DHT22;8784;50.94667800;7.08448400;2024-03-07T04:12:14;5.80;99.90
17333;DHT22;8784;50.94667800;7.08448400;2024-03-07T04:14:42;5.80;99.90
17333;DHT22;8784;50.94667800;7.08448400;2024-03-07T04:17:10;5.80;99.90
17333;DHT22;8784;50.94667800;7.08448400;2024-03-07T04:19:40;5.80;99.90
17333;DHT22;8784;50.94667800;7.08448400;2024-03-07T04:22:07;5.70;99.90
17333;DHT22;8784;50.94667800;7.08448400;2024-03-07T04:24:35;5.70;99.90
17333;DHT22;8784;50.94667800;7.08448400;2024-03-07T04:27:02;5.60;99.90
17333;DHT22;8784;50.94667800;7.08448400;2024-03-07T04:29:30;5.60;99.90
17333;DHT22;8784;50.94667800;7.08448400;2024-03-07T04:31:56;5.60;99.90
17333;DHT22;8784;50.94667800;7.08448400;2024-03-07T04:34:23;5.60;99.90
17333;DHT22;8784;50.94667800;7.08448400;2024-03-07T04:36:52;5.60;99.90
17333;DHT22;8784;50.94667800;7.08448400;2024-03-07T04:39:19;5.50;99.90
17333;DHT22;8784;50.94667800;7.08448400;2024-03-07T04:41:56;5.50;99.90
17333;DHT22;8784;50.94667800;7.08448400;2024-03-07T04:44:23;5.40;99.90
17333;DHT22;8784;50.94667800;7.08448400;2024-03-07T04:46:50;5.50;99.90
17333;DHT22;8784;50.94667800;7.08448400;2024-03-07T04:49:21;5.50;99.90
17333;DHT22;8784;50.94667800;7.08448400;2024-03-07T04:51:48;5.50;99.90
17333;DHT22;8784;50.94667800;7.08448400;2024-03-07T04:54:17;5.50;99.90
17333;DHT22;8784;50.94667800;7.08448400;2024-03-07T04:56:44;5.50;99.90
17333;DHT22;8784;50.94667800;7.08448400;2024-03-07T04:59:11;5.50;99.90
17333;DHT22;8784;50.94667800;7.08448400;2024-03-07T05:01:38;5.50;99.90
17333;DHT22;8784;50.94667800;7.08448400;2024-03-07T05:04:05;5.50;99.90
17333;DHT22;8784;50.94667800;7.08448400;2024-03-07T05:06:32;5.50;99.90
17333;DHT22;8784;50.94667800;7.08448400;2024-03-07T05:09:00;5.60;99.90
17333;DHT22;8784;50.94667800;7.08448400;2024-03-07T05:11:30;5.60;99.90
17333;DHT22;8784;50.94667800;7.08448400;2024-03-07T05:13:58;5.60;99.90
17333;DHT22;8784;50.94667800;7.08448400;2024-03-07T05:16:25;5.60;99.90
17333;DHT22;8784;50.94667800;7.08448400;2024-03-07T05:18:52;5.60;99.90
17333;DHT22;8784;50.94667800;7.08448400;2024-03-07T05:21:19;5.60;99.90
17333;DHT22;8784;50.94667800;7.08448400;2024-03-07T05:24:07;5.60;99.90
17333;DHT22;8784;50.94667800;7.08448400;2024-03-07T05:26:36;5.50;99.90
17333;DHT22;8784;50.94667800;7.08448400;2024-03-07T05:29:05;5.60;99.90
17333;DHT22;8784;50.94667800;7.08448400;2024-03-07T05:31:33;5.60;99.90
17333;DHT22;8784;50.94667800;7.08448400;2024-03-07T05:34:01;5.70;99.90
17333;DHT22;8784;50.94667800;7.08448400;2024-03-07T05:36:30;5.80;99.90
17333;DHT22;8784;50.94667800;7.08448400;2024-03-07T05:38:57;5.80;99.90
17333;DHT22;8784;50.94667800;7.08448400;2024-03-07T05:41:33;5.90;99.90
17333;DHT22;8784;50.94667800;7.08448400;2024-03-07T05:44:02;6.00;99.90
17333;DHT22;8784;50.94667800;7.08448400;2024-03-07T05:46:30;6.00;99.90
17333;DHT22;8784;50.94667800;7.08448400;2024-03-07T05:48:57;5.90;99.90
17333;DHT22;8784;50.94667800;7.08448400;2024-03-07T05:51:25;5.80;99.90
17333;DHT22;8784;50.94667800;7.08448400;2024-03-07T05:53:57;5.80;99.90
17333;DHT22;8784;50.94667800;7.08448400;2024-03-07T05:56:26;5.70;99.90
17333;DHT22;8784;50.94667800;7.08448400;2024-03-07T05:58:54;5.80;99.90
17333;DHT22;8784;50.94667800;7.08448400;2024-03-07T06:01:22;5.80;99.90
17333;DHT22;8784;50.94667800;7.08448400;2024-03-07T06:03:51;5.70;99.90
17333;DHT22;8784;50.94667800;7.08448400;2024-03-07T06:06:18;5.60;99.90
17333;DHT22;8784;50.94667800;7.08448400;2024-03-07T06:08:45;5.50;99.90
17333;DHT22;8784;50.94667800;7.08448400;2024-03-07T06:11:12;5.50;99.90
17333;DHT22;8784;50.94667800;7.08448400;2024-03-07T06:13:45;5.50;99.90
17333;DHT22;8784;50.94667800;7.08448400;2024-03-07T06:16:12;5.40;99.90
17333;DHT22;8784;50.94667800;7.08448400;2024-03-07T06:18:41;5.40;99.90
17333;DHT22;8784;50.94667800;7.08448400;2024-03-07T06:21:08;5.40;99.90
17333;DHT22;8784;50.94667800;7.08448400;2024-03-07T06:23:35;5.40;99.90
17333;DHT22;8784;50.94667800;7.08448400;2024-03-07T06:26:03;5.30;99.90
17333;DHT22;8784;50.94667800;7.08448400;2024-03-07T06:28:38;5.40;99.90
17333;DHT22;8784;50.94667800;7.08448400;2024-03-07T06:31:08;5.40;99.90
17333;DHT22;8784;50.94667800;7.08448400;2024-03-07T06:33:35;5.40;99.90
17333;DHT22;8784;50.94667800;7.08448400;2024-03-07T06:36:04;5.50;99.90
17333;DHT22;8784;50.94667800;7.08448400;2024-03-07T06:38:31;5.40;99.90
17333;DHT22;8784;50.94667800;7.08448400;2024-03-07T06:40:58;5.50;99.90
17333;DHT22;8784;50.94667800;7.08448400;2024-03-07T06:43:25;5.60;99.90
17333;DHT22;8784;50.94667800;7.08448400;2024-03-07T06:45:52;5.70;99.90
17333;DHT22;8784;50.94667800;7.08448400;2024-03-07T06:48:20;5.80;99.90
17333;DHT22;8784;50.94667800;7.08448400;2024-03-07T06:50:47;5.80;99.90
17333;DHT22;8784;50.94667800;7.08448400;2024-03-07T06:53:15;5.90;99.90
17333;DHT22;8784;50.94667800;7.08448400;2024-03-07T06:55:42;6.00;99.90
17333;DHT22;8784;50.94667800;7.08448400;2024-03-07T06:58:09;6.10;99.90
17333;DHT22;8784;50.94667800;7.08448400;2024-03-07T07:00:36;6.10;99.90
17333;DHT22;8784;50.94667800;7.08448400;2024-03-07T07:03:05;6.10;99.90
17333;DHT22;8784;50.94667800;7.08448400;2024-03-07T07:05:32;6.20;99.90
17333;DHT22;8784;50.94667800;7.08448400;2024-03-07T07:08:00;6.20;99.90
17333;DHT22;8784;50.94667800;7.08448400;2024-03-07T07:10:33;6.20;99.90
17333;DHT22;8784;50.94667800;7.08448400;2024-03-07T07:13:08;6.30;99.90
17333;DHT22;8784;50.94667800;7.08448400;2024-03-07T07:15:36;6.40;99.90
17333;DHT22;8784;50.94667800;7.08448400;2024-03-07T07:18:03;6.50;99.90
17333;DHT22;8784;50.94667800;7.08448400;2024-03-07T07:20:31;6.60;99.90
17333;DHT22;8784;50.94667800;7.08448400;2024-03-07T07:23:00;6.70;99.90
17333;DHT22;8784;50.94667800;7.08448400;2024-03-07T07:25:30;6.80;99.90
17333;DHT22;8784;50.94667800;7.08448400;2024-03-07T07:27:57;6.90;99.90
17333;DHT22;8784;50.94667800;7.08448400;2024-03-07T07:30:24;7.10;99.90
17333;DHT22;8784;50.94667800;7.08448400;2024-03-07T07:32:53;7.10;99.90
17333;DHT22;8784;50.94667800;7.08448400;2024-03-07T07:35:20;7.20;99.90
17333;DHT22;8784;50.94667800;7.08448400;2024-03-07T07:37:49;7.20;99.90
17333;DHT22;8784;50.94667800;7.08448400;2024-03-07T07:40:18;7.30;99.90
17333;DHT22;8784;50.94667800;7.08448400;2024-03-07T07:42:47;7.40;99.90
17333;DHT22;8784;50.94667800;7.08448400;2024-03-07T07:45:15;7.30;99.90
17333;DHT22;8784;50.94667800;7.08448400;2024-03-07T07:47:43;7.50;99.90
17333;DHT22;8784;50.94667800;7.08448400;2024-03-07T07:50:11;7.50;99.90
17333;DHT22;8784;50.94667800;7.08448400;2024-03-07T07:52:43;7.60;99.90
17333;DHT22;8784;50.94667800;7.08448400;2024-03-07T07:55:10;7.60;99.90
17333;DHT22;8784;50.94667800;7.08448400;2024-03-07T07:57:41;7.70;99.90
17333;DHT22;8784;50.94667800;7.08448400;2024-03-07T08:00:13;7.80;99.90
17333;DHT22;8784;50.94667800;7.08448400;2024-03-07T08:02:51;7.90;99.90
17333;DHT22;8784;50.94667800;7.08448400;2024-03-07T08:05:18;8.00;99.90
17333;DHT22;8784;50.94667800;7.08448400;2024-03-07T08:07:46;8.20;99.90
17333;DHT22;8784;50.94667800;7.08448400;2024-03-07T08:10:14;8.30;99.90
17333;DHT22;8784;50.94667800;7.08448400;2024-03-07T08:12:42;8.50;99.90
17333;DHT22;8784;50.94667800;7.08448400;2024-03-07T08:15:11;8.50;99.90
17333;DHT22;8784;50.94667800;7.08448400;2024-03-07T08:17:43;8.60;99.90
17333;DHT22;8784;50.94667800;7.08448400;2024-03-07T08:20:14;8.70;99.90
17333;DHT22;8784;50.94667800;7.08448400;2024-03-07T08:22:42;8.80;99.90
17333;DHT22;8784;50.94667800;7.08448400;2024-03-07T08:25:10;8.90;99.90
17333;DHT22;8784;50.94667800;7.08448400;2024-03-07T08:27:38;8.90;99.90
17333;DHT22;8784;50.94667800;7.08448400;2024-03-07T08:30:07;8.90;99.90
17333;DHT22;8784;50.94667800;7.08448400;2024-03-07T08:32:40;8.90;99.90
17333;DHT22;8784;50.94667800;7.08448400;2024-03-07T08:35:08;9.20;99.90
17333;DHT22;8784;50.94667800;7.08448400;2024-03-07T08:37:36;9.30;99.90
17333;DHT22;8784;50.94667800;7.08448400;2024-03-07T08:40:04;9.40;99.90
17333;DHT22;8784;50.94667800;7.08448400;2024-03-07T08:42:33;9.40;99.90
17333;DHT22;8784;50.94667800;7.08448400;2024-03-07T08:45:00;9.50;99.90
17333;DHT22;8784;50.94667800;7.08448400;2024-03-07T08:47:30;9.60;99.90
17333;DHT22;8784;50.94667800;7.08448400;2024-03-07T08:49:58;9.70;99.90
17333;DHT22;8784;50.94667800;7.08448400;2024-03-07T08:52:26;9.70;99.90
17333;DHT22;8784;50.94667800;7.08448400;2024-03-07T08:54:53;9.80;99.90
17333;DHT22;8784;50.94667800;7.08448400;2024-03-07T08:57:20;9.70;99.90
17333;DHT22;8784;50.94667800;7.08448400;2024-03-07T08:59:47;9.80;99.90
17333;DHT22;8784;50.94667800;7.08448400;2024-03-07T09:02:14;9.90;99.90
17333;DHT22;8784;50.94667800;7.08448400;2024-03-07T09:04:41;9.90;99.90
17333;DHT22;8784;50.94667800;7.08448400;2024-03-07T09:07:10;10.20;99.90
17333;DHT22;8784;50.94667800;7.08448400;2024-03-07T09:09:38;10.50;99.90
17333;DHT22;8784;50.94667800;7.08448400;2024-03-07T09:12:09;10.90;99.90
17333;DHT22;8784;50.94667800;7.08448400;2024-03-07T09:14:36;11.20;99.40
17333;DHT22;8784;50.94667800;7.08448400;2024-03-07T09:17:03;11.50;99.90
17333;DHT22;8784;50.94667800;7.08448400;2024-03-07T09:19:30;11.90;98.30
17333;DHT22;8784;50.94667800;7.08448400;2024-03-07T09:21:57;12.00;95.70
17333;DHT22;8784;50.94667800;7.08448400;2024-03-07T09:24:27;11.90;95.60
17333;DHT22;8784;50.94667800;7.08448400;2024-03-07T09:26:53;11.70;94.60
17333;DHT22;8784;50.94667800;7.08448400;2024-03-07T09:29:22;11.50;93.50
17333;DHT22;8784;50.94667800;7.08448400;2024-03-07T09:31:49;11.30;93.40
17333;DHT22;8784;50.94667800;7.08448400;2024-03-07T09:34:19;11.20;93.20
17333;DHT22;8784;50.94667800;7.08448400;2024-03-07T09:36:46;11.10;93.60
17333;DHT22;8784;50.94667800;7.08448400;2024-03-07T09:39:14;11.30;92.60
17333;DHT22;8784;50.94667800;7.08448400;2024-03-07T09:41:42;11.50;93.00
17333;DHT22;8784;50.94667800;7.08448400;2024-03-07T09:44:10;11.70;93.40
17333;DHT22;8784;50.94667800;7.08448400;2024-03-07T09:46:40;12.30;92.40
17333;DHT22;8784;50.94667800;7.08448400;2024-03-07T09:49:07;13.70;92.80
17333;DHT22;8784;50.94667800;7.08448400;2024-03-07T09:51:37;14.80;91.10
17333;DHT22;8784;50.94667800;7.08448400;2024-03-07T09:54:05;15.00;88.80
17333;DHT22;8784;50.94667800;7.08448400;2024-03-07T09:56:32;14.70;89.00
17333;DHT22;8784;50.94667800;7.08448400;2024-03-07T09:59:04;14.30;87.50
17333;DHT22;8784;50.94667800;7.08448400;2024-03-07T10:01:34;13.50;87.50
17333;DHT22;8784;50.94667800;7.08448400;2024-03-07T10:04:05;13.30;87.00
17333;DHT22;8784;50.94667800;7.08448400;2024-03-07T10:06:37;12.80;88.40
17333;DHT22;8784;50.94667800;7.08448400;2024-03-07T10:09:06;12.70;89.70
17333;DHT22;8784;50.94667800;7.08448400;2024-03-07T10:11:34;12.50;87.50
17333;DHT22;8784;50.94667800;7.08448400;2024-03-07T10:14:00;12.00;87.10
17333;DHT22;8784;50.94667800;7.08448400;2024-03-07T10:16:30;11.60;87.00
17333;DHT22;8784;50.94667800;7.08448400;2024-03-07T10:18:58;13.20;89.20
17333;DHT22;8784;50.94667800;7.08448400;2024-03-07T10:21:26;14.50;86.30
17333;DHT22;8784;50.94667800;7.08448400;2024-03-07T10:24:04;15.10;83.00
17333;DHT22;8784;50.94667800;7.08448400;2024-03-07T10:26:34;15.70;79.70
17333;DHT22;8784;50.94667800;7.08448400;2024-03-07T10:29:01;16.90;77.40
17333;DHT22;8784;50.94667800;7.08448400;2024-03-07T10:31:31;17.50;77.70
17333;DHT22;8784;50.94667800;7.08448400;2024-03-07T10:33:59;17.60;77.50
17333;DHT22;8784;50.94667800;7.08448400;2024-03-07T10:36:28;17.50;75.50
17333;DHT22;8784;50.94667800;7.08448400;2024-03-07T10:38:56;17.10;74.80
17333;DHT22;8784;50.94667800;7.08448400;2024-03-07T10:41:43;16.60;75.50
17333;DHT22;8784;50.94667800;7.08448400;2024-03-07T10:44:11;16.00;73.00
17333;DHT22;8784;50.94667800;7.08448400;2024-03-07T10:46:45;15.40;74.70
17333;DHT22;8784;50.94667800;7.08448400;2024-03-07T10:49:16;14.80;74.40
17333;DHT22;8784;50.94667800;7.08448400;2024-03-07T10:51:46;14.80;75.60
17333;DHT22;8784;50.94667800;7.08448400;2024-03-07T10:54:18;14.50;75.70
17333;DHT22;8784;50.94667800;7.08448400;2024-03-07T10:56:56;14.60;77.20
17333;DHT22;8784;50.94667800;7.08448400;2024-03-07T10:59:31;14.90;77.30
17333;DHT22;8784;50.94667800;7.08448400;2024-03-07T11:02:10;15.10;77.60
17333;DHT22;8784;50.94667800;7.08448400;2024-03-07T11:04:42;14.70;73.80
17333;DHT22;8784;50.94667800;7.08448400;2024-03-07T11:07:10;14.00;75.70
17333;DHT22;8784;50.94667800;7.08448400;2024-03-07T11:09:38;13.50;76.40
17333;DHT22;8784;50.94667800;7.08448400;2024-03-07T11:12:08;13.30;77.50
17333;DHT22;8784;50.94667800;7.08448400;2024-03-07T11:14:38;13.20;77.60
17333;DHT22;8784;50.94667800;7.08448400;2024-03-07T11:17:08;13.00;78.00
17333;DHT22;8784;50.94667800;7.08448400;2024-03-07T11:19:38;12.90;78.40
17333;DHT22;8784;50.94667800;7.08448400;2024-03-07T11:22:05;12.60;78.80
17333;DHT22;8784;50.94667800;7.08448400;2024-03-07T11:24:41;12.50;79.90
17333;DHT22;8784;50.94667800;7.08448400;2024-03-07T11:27:10;12.70;80.00
17333;DHT22;8784;50.94667800;7.08448400;2024-03-07T11:29:40;12.70;80.60
17333;DHT22;8784;50.94667800;7.08448400;2024-03-07T11:32:10;12.90;80.80
17333;DHT22;8784;50.94667800;7.08448400;2024-03-07T11:34:39;13.20;81.60
17333;DHT22;8784;50.94667800;7.08448400;2024-03-07T11:37:08;13.50;80.40
17333;DHT22;8784;50.94667800;7.08448400;2024-03-07T11:39:43;13.70;80.70
17333;DHT22;8784;50.94667800;7.08448400;2024-03-07T11:42:27;13.80;79.90
17333;DHT22;8784;50.94667800;7.08448400;2024-03-07T11:44:56;14.00;80.30
17333;DHT22;8784;50.94667800;7.08448400;2024-03-07T11:47:26;14.30;80.40
17333;DHT22;8784;50.94667800;7.08448400;2024-03-07T11:49:54;14.30;78.40
17333;DHT22;8784;50.94667800;7.08448400;2024-03-07T11:52:23;14.20;78.90
17333;DHT22;8784;50.94667800;7.08448400;2024-03-07T11:54:53;14.10;78.20
17333;DHT22;8784;50.94667800;7.08448400;2024-03-07T11:57:29;13.60;78.40
17333;DHT22;8784;50.94667800;7.08448400;2024-03-07T11:59:59;13.30;79.30
17333;DHT22;8784;50.94667800;7.08448400;2024-03-07T12:02:37;13.00;79.60
17333;DHT22;8784;50.94667800;7.08448400;2024-03-07T12:05:05;12.80;79.80
17333;DHT22;8784;50.94667800;7.08448400;2024-03-07T12:07:33;12.60;80.60
17333;DHT22;8784;50.94667800;7.08448400;2024-03-07T12:10:00;12.40;80.50
17333;DHT22;8784;50.94667800;7.08448400;2024-03-07T12:12:30;12.20;80.60
17333;DHT22;8784;50.94667800;7.08448400;2024-03-07T12:14:58;12.00;81.00
17333;DHT22;8784;50.94667800;7.08448400;2024-03-07T12:17:27;11.90;81.60
17333;DHT22;8784;50.94667800;7.08448400;2024-03-07T12:19:57;11.90;82.20
17333;DHT22;8784;50.94667800;7.08448400;2024-03-07T12:22:29;12.00;82.20
17333;DHT22;8784;50.94667800;7.08448400;2024-03-07T12:25:03;11.90;81.80
17333;DHT22;8784;50.94667800;7.08448400;2024-03-07T12:27:33;11.90;82.30
17333;DHT22;8784;50.94667800;7.08448400;2024-03-07T12:30:01;12.00;81.60
17333;DHT22;8784;50.94667800;7.08448400;2024-03-07T12:32:33;12.20;82.60
17333;DHT22;8784;50.94667800;7.08448400;2024-03-07T12:35:04;12.60;82.00
17333;DHT22;8784;50.94667800;7.08448400;2024-03-07T12:37:35;12.80;81.10
17333;DHT22;8784;50.94667800;7.08448400;2024-03-07T12:40:11;12.80;78.90
17333;DHT22;8784;50.94667800;7.08448400;2024-03-07T12:42:46;12.70;78.70
17333;DHT22;8784;50.94667800;7.08448400;2024-03-07T12:45:13;12.50;79.40
17333;DHT22;8784;50.94667800;7.08448400;2024-03-07T12:47:43;12.50;80.20
17333;DHT22;8784;50.94667800;7.08448400;2024-03-07T12:50:14;12.40;80.70
17333;DHT22;8784;50.94667800;7.08448400;2024-03-07T12:52:42;12.30;81.50
17333;DHT22;8784;50.94667800;7.08448400;2024-03-07T12:55:09;12.30;82.00
17333;DHT22;8784;50.94667800;7.08448400;2024-03-07T12:57:36;12.30;81.80
17333;DHT22;8784;50.94667800;7.08448400;2024-03-07T13:00:07;12.20;82.30
17333;DHT22;8784;50.94667800;7.08448400;2024-03-07T13:02:45;12.10;81.60
17333;DHT22;8784;50.94667800;7.08448400;2024-03-07T13:05:14;11.90;82.00
17333;DHT22;8784;50.94667800;7.08448400;2024-03-07T13:07:47;11.80;82.40
17333;DHT22;8784;50.94667800;7.08448400;2024-03-07T13:10:14;11.80;82.40
17333;DHT22;8784;50.94667800;7.08448400;2024-03-07T13:12:44;12.00;82.70
17333;DHT22;8784;50.94667800;7.08448400;2024-03-07T13:15:12;12.30;81.80
17333;DHT22;8784;50.94667800;7.08448400;2024-03-07T13:17:40;12.40;80.20
17333;DHT22;8784;50.94667800;7.08448400;2024-03-07T13:20:10;12.60;79.80
17333;DHT22;8784;50.94667800;7.08448400;2024-03-07T13:22:42;12.70;79.30
17333;DHT22;8784;50.94667800;7.08448400;2024-03-07T13:25:14;12.80;79.70
17333;DHT22;8784;50.94667800;7.08448400;2024-03-07T13:27:50;12.90;78.40
17333;DHT22;8784;50.94667800;7.08448400;2024-03-07T13:30:21;12.80;78.20
17333;DHT22;8784;50.94667800;7.08448400;2024-03-07T13:32:50;12.70;78.10
17333;DHT22;8784;50.94667800;7.08448400;2024-03-07T13:35:21;12.40;78.20
17333;DHT22;8784;50.94667800;7.08448400;2024-03-07T13:37:50;12.20;79.40
17333;DHT22;8784;50.94667800;7.08448400;2024-03-07T13:40:19;12.00;79.50
17333;DHT22;8784;50.94667800;7.08448400;2024-03-07T13:42:53;11.70;79.30
17333;DHT22;8784;50.94667800;7.08448400;2024-03-07T13:45:21;11.70;80.30
17333;DHT22;8784;50.94667800;7.08448400;2024-03-07T13:47:49;12.00;80.90
17333;DHT22;8784;50.94667800;7.08448400;2024-03-07T13:50:18;12.10;80.50